Time;durP1;ratioP1;P1;durP2;ratioP2;P2;SDS_P1;SDS_P2;PMS_P1;PMS_P2;Temp;Humidity;BMP_temperature;BMP_pressure;BME280_temperature;BME280_humidity;BME280_pressure;Samples;Min_cycle;Max_cycle;Signal;HPM_P1;HPM_P2
2022/12/28 00:00:24;;;;;;;10.85;5.80;;;;;;;;;;5089057;28;20121;-64
2022/12/28 00:02:49;;;;;;;8.98;4.78;;;6.40;99.90;;;;;;5088907;28;20448;-65
2022/12/28 00:05:16;;;;;;;11.82;5.03;;;;;;;;;;5070873;28;20043;-64
2022/12/28 00:07:42;;;;;;;13.75;4.75;;;6.30;99.90;;;;;;5088655;28;20051;-64
2022/12/28 00:10:08;;;;;;;10.32;4.63;;;;;;;;;;5088518;28;20112;-64
2022/12/28 00:12:34;;;;;;;13.68;5.15;;;;;;;;;;5088909;28;20040;-64
2022/12/28 00:15:00;;;;;;;14.27;4.28;;;;;;;;;;5098784;28;20410;-64
2022/12/28 00:17:27;;;;;;;11.10;4.75;;;;;;;;;;5082478;28;20043;-64
2022/12/28 00:19:52;;;;;;;10.50;5.03;;;;;;;;;;5079012;28;20398;-63
2022/12/28 00:22:18;;;;;;;14.55;5.82;;;;;;;;;;5078817;28;20043;-63
2022/12/28 00:24:44;;;;;;;7.47;5.07;;;;;;;;;;5097428;28;20132;-63
2022/12/28 00:27:10;;;;;;;14.60;5.55;;;;;;;;;;5103360;28;20111;-64
2022/12/28 00:29:36;;;;;;;11.10;5.75;;;;;;;;;;5080197;28;20040;-63
2022/12/28 00:32:02;;;;;;;12.98;5.95;;;;;;;;;;5094941;28;20160;-63
2022/12/28 00:34:28;;;;;;;9.20;5.22;;;;;;;;;;5078450;28;20493;-62
2022/12/28 00:36:54;;;;;;;16.77;6.45;;;;;;;;;;5069882;28;20604;-64
2022/12/28 00:39:20;;;;;;;11.90;6.40;;;;;;;;;;5077278;28;20039;-62
2022/12/28 00:41:47;;;;;;;13.32;5.72;;;;;;;;;;5069890;28;20043;-63
2022/12/28 00:44:12;;;;;;;11.13;5.68;;;;;;;;;;5087628;28;20058;-62
2022/12/28 00:46:38;;;;;;;11.85;5.63;;;6.60;99.90;;;;;;5070298;28;20039;-62
2022/12/28 00:49:04;;;;;;;14.32;6.93;;;;;;;;;;5088074;28;20044;-63
2022/12/28 00:51:30;;;;;;;11.38;5.45;;;;;;;;;;5088186;28;20040;-63
2022/12/28 00:53:56;;;;;;;13.05;5.65;;;;;;;;;;5087755;28;20127;-63
2022/12/28 00:56:22;;;;;;;13.27;5.72;;;;;;;;;;5088144;28;20509;-63
2022/12/28 00:58:48;;;;;;;19.42;5.90;;;;;;;;;;5069297;28;20089;-62
2022/12/28 01:01:19;;;;;;;11.05;5.75;;;;;;;;;;5088089;28;20083;-62
2022/12/28 01:03:45;;;;;;;14.52;5.53;;;;;;;;;;5069749;28;20059;-64
2022/12/28 01:06:12;;;;;;;6.43;4.25;;;;;;;;;;5069398;28;20083;-64
2022/12/28 01:08:39;;;;;;;10.25;5.18;;;;;;;;;;5069414;28;20490;-63
2022/12/28 01:11:18;;;;;;;11.32;5.38;;;;;;;;;;5087580;28;20086;-63
2022/12/28 01:13:44;;;;;;;11.82;5.63;;;;;;;;;;5087756;28;20052;-64
2022/12/28 01:16:15;;;;;;;12.45;5.32;;;;;;;;;;5069512;28;20044;-63
2022/12/28 01:18:41;;;;;;;9.65;5.40;;;;;;;;;;5069513;28;20063;-63
2022/12/28 01:21:09;;;;;;;9.13;4.80;;;;;;;;;;5087669;28;20036;-63
2022/12/28 01:23:35;;;;;;;11.45;5.80;;;;;;;;;;5087702;28;20040;-64
2022/12/28 01:26:01;;;;;;;9.05;4.70;;;;;;;;;;5069648;28;20043;-63
2022/12/28 01:28:28;;;;;;;15.02;5.60;;;;;;;;;;5087747;28;20096;-63
2022/12/28 01:30:54;;;;;;;10.60;5.50;;;;;;;;;;5087528;28;20135;-64
2022/12/28 01:33:20;;;;;;;13.13;5.07;;;;;;;;;;5088087;28;20178;-64
2022/12/28 01:35:46;;;;;;;14.68;5.45;;;;;;;;;;5069170;28;20048;-63
2022/12/28 01:38:12;;;;;;;12.45;5.45;;;;;;;;;;5068985;28;20453;-62
2022/12/28 01:40:42;;;;;;;11.57;5.85;;;;;;;;;;5087618;28;20036;-63
2022/12/28 01:43:14;;;;;;;9.98;5.50;;;;;;;;;;5068966;28;20040;-64
2022/12/28 01:45:40;;;;;;;9.00;5.40;;;;;;;;;;5069165;28;20458;-63
2022/12/28 01:48:15;;;;;;;12.02;5.80;;;;;;;;;;5068767;28;20044;-63
2022/12/28 01:50:42;;;;;;;12.63;5.20;;;;;;;;;;5068772;28;20101;-63
2022/12/28 01:53:07;;;;;;;10.00;5.30;;;6.60;99.90;;;;;;5091289;28;20048;-63
2022/12/28 01:55:34;;;;;;;13.63;5.63;;;;;;;;;;5081550;28;20044;-64
2022/12/28 01:58:02;;;;;;;12.95;6.07;;;;;;;;;;5102924;28;20095;-64
2022/12/28 02:00:28;;;;;;;12.15;5.60;;;;;;;;;;5075819;28;20055;-64
2022/12/28 02:02:58;;;;;;;8.05;4.88;;;;;;;;;;5072733;28;20040;-63
2022/12/28 02:05:26;;;;;;;14.27;5.47;;;;;;;;;;5087053;28;20043;-64
2022/12/28 02:07:59;;;;;;;8.93;4.95;;;;;;;;;;5082621;28;20557;-63
2022/12/28 02:10:26;;;;;;;10.48;5.53;;;;;;;;;;5080524;28;20052;-64
2022/12/28 02:12:53;;;;;;;11.82;4.88;;;;;;;;;;5070720;28;20043;-63
2022/12/28 02:15:19;;;;;;;14.43;6.28;;;;;;;;;;5068640;28;20370;-64
2022/12/28 02:17:45;;;;;;;9.32;5.18;;;;;;;;;;5082869;28;20051;-63
2022/12/28 02:20:13;;;;;;;9.02;5.03;;;;;;;;;;5086692;28;20048;-63
2022/12/28 02:22:47;;;;;;;15.48;5.20;;;;;;;;;;5068770;28;20052;-64
2022/12/28 02:25:42;;;;;;;11.00;6.18;;;;;;;;;;5086669;28;20470;-63
2022/12/28 02:28:14;;;;;;;11.77;6.07;;;;;;;;;;5062307;28;20135;-63
2022/12/28 02:30:46;;;;;;;7.85;6.30;;;;;;;;;;5078566;28;20844;-63
2022/12/28 02:33:24;;;;;;;19.75;6.55;;;;;;;;;;5068468;28;20059;-63
2022/12/28 02:36:05;;;;;;;10.80;6.85;;;6.70;99.90;;;;;;5097584;28;20040;-63
2022/12/28 02:38:35;;;;;;;14.73;7.30;;;;;;;;;;5069785;28;20040;-63
2022/12/28 02:41:10;;;;;;;12.50;6.65;;;6.70;99.90;;;;;;5086883;28;20050;-63
2022/12/28 02:43:36;;;;;;;14.05;7.43;;;;;;;;;;5073118;28;20059;-63
2022/12/28 02:52:30;;;;;;;11.30;8.00;;;;;;;;;;5091873;28;20131;-63
2022/12/28 02:58:05;;;;;;;11.60;7.45;;;;;;;;;;5085112;28;20409;-63
2022/12/28 03:00:38;;;;;;;11.60;7.40;;;;;;;;;;5091281;28;20437;-64
2022/12/28 03:03:20;;;;;;;13.48;8.35;;;7.00;99.90;;;;;;5078561;28;20048;-64
2022/12/28 03:08:40;;;;;;;14.13;8.65;;;;;;;;;;5088668;28;20052;-63
2022/12/28 03:11:18;;;;;;;12.40;7.95;;;6.80;99.90;;;;;;5090155;28;20043;-63
2022/12/28 03:13:52;;;;;;;14.25;8.30;;;;;;;;;;5090399;28;20061;-64
2022/12/28 03:16:24;;;;;;;11.73;8.15;;;;;;;;;;5072063;28;20046;-63
2022/12/28 03:32:45;;;;;;;15.70;9.18;;;;;;;;;;5089542;28;20522;-63
2022/12/28 03:35:11;;;;;;;13.68;9.48;;;;;;;;;;5071870;28;20120;-64
2022/12/28 03:37:41;;;;;;;14.93;9.77;;;;;;;;;;5089838;28;20040;-62
2022/12/28 03:40:13;;;;;;;15.45;9.88;;;7.00;99.90;;;;;;5103350;28;20047;-64
2022/12/28 03:45:42;;;;;;;14.80;8.98;;;;;;;;;;5059812;28;20478;-64
2022/12/28 03:48:08;;;;;;;15.43;10.23;;;;;;;;;;5071086;28;20339;-63
2022/12/28 03:50:37;;;;;;;12.10;8.35;;;7.10;99.90;;;;;;5071361;28;20131;-63
2022/12/28 03:53:03;;;;;;;12.57;9.18;;;;;;;;;;5090619;28;20059;-64
2022/12/28 03:55:29;;;;;;;11.70;8.32;;;;;;;;;;5083961;28;20048;-64
2022/12/28 03:57:55;;;;;;;12.88;8.40;;;;;;;;;;5102729;28;20116;-63
2022/12/28 04:00:21;;;;;;;13.93;9.43;;;7.00;99.90;;;;;;5076649;28;20043;-62
2022/12/28 04:02:47;;;;;;;14.70;9.82;;;;;;;;;;5100848;28;20048;-63
2022/12/28 04:05:14;;;;;;;17.52;9.15;;;;;;;;;;5089222;28;20047;-63
2022/12/28 04:07:40;;;;;;;14.90;10.20;;;;;;;;;;5088921;28;20051;-63
2022/12/28 04:10:06;;;;;;;17.17;10.95;;;7.10;99.90;;;;;;5088877;28;20056;-63
2022/12/28 04:12:32;;;;;;;16.50;9.25;;;;;;;;;;5092532;28;20397;-62
2022/12/28 04:14:58;;;;;;;15.55;8.43;;;;;;;;;;5081206;28;20059;-63
2022/12/28 04:17:24;;;;;;;16.13;9.68;;;;;;;;;;5103084;28;20431;-63
2022/12/28 04:19:50;;;;;;;18.60;10.77;;;;;;;;;;5087590;28;20036;-63
2022/12/28 04:22:16;;;;;;;15.68;9.75;;;;;;;;;;5088584;28;20126;-64
2022/12/28 04:24:41;;;;;;;13.63;9.15;;;7.10;99.90;;;;;;5094428;28;20054;-63
2022/12/28 04:27:07;;;;;;;14.88;9.65;;;;;;;;;;5097120;28;20042;-63
2022/12/28 04:29:33;;;;;;;14.35;11.05;;;;;;;;;;5088993;28;20549;-63
2022/12/28 04:31:59;;;;;;;17.40;10.50;;;;;;;;;;5088513;28;20052;-63
2022/12/28 04:34:25;;;;;;;17.00;10.60;;;;;;;;;;5070075;28;20092;-62
2022/12/28 04:36:51;;;;;;;15.13;11.15;;;;;;;;;;5078033;28;20044;-63
2022/12/28 04:39:17;;;;;;;16.77;12.48;;;7.30;99.90;;;;;;5076288;28;20136;-63
2022/12/28 04:41:42;;;;;;;19.98;12.32;;;;;;;;;;5076015;28;20056;-63
2022/12/28 04:44:08;;;;;;;15.65;12.52;;;;;;;;;;5096783;28;20044;-64
2022/12/28 04:46:34;;;;;;;18.80;12.05;;;;;;;;;;5102654;28;20044;-64
2022/12/28 04:49:01;;;;;;;17.50;13.13;;;;;;;;;;5070139;28;20067;-64
2022/12/28 04:51:28;;;;;;;21.52;12.95;;;7.80;99.90;;;;;;5084309;28;20553;-63
2022/12/28 04:53:54;;;;;;;18.90;13.43;;;;;;;;;;5088230;28;20040;-63
2022/12/28 04:56:21;;;;;;;15.32;10.80;;;;;;;;;;5080468;28;20172;-63
2022/12/28 04:58:47;;;;;;;22.33;14.07;;;;;;;;;;5069992;28;20044;-64
2022/12/28 05:01:15;;;;;;;20.10;13.45;;;;;;;;;;5069792;28;20050;-63
2022/12/28 05:03:42;;;;;;;19.50;13.18;;;;;;;;;;5088246;28;20044;-63
2022/12/28 05:06:10;;;;;;;20.35;13.55;;;;;;;;;;5095266;28;20122;-64
2022/12/28 05:08:36;;;;;;;19.92;13.85;;;;;;;;;;5076735;28;20048;-64
2022/12/28 05:11:04;;;;;;;22.52;13.90;;;;;;;;;;5075182;28;20043;-64
2022/12/28 05:13:30;;;;;;;20.80;14.13;;;;;;;;;;5097043;28;20055;-64
2022/12/28 05:16:00;;;;;;;19.77;14.02;;;;;;;;;;5070019;28;20751;-64
2022/12/28 05:18:27;;;;;;;20.17;13.80;;;;;;;;;;5093784;28;20055;-64
2022/12/28 05:21:00;;;;;;;20.17;12.45;;;;;;;;;;5093487;28;20519;-64
2022/12/28 05:23:27;;;;;;;18.17;13.43;;;;;;;;;;5088591;28;20440;-63
2022/12/28 05:25:53;;;;;;;19.85;13.55;;;7.70;99.90;;;;;;5098116;28;20454;-64
2022/12/28 05:28:19;;;;;;;22.45;13.02;;;;;;;;;;5088188;28;20035;-65
2022/12/28 05:30:45;;;;;;;18.45;12.90;;;;;;;;;;5087193;28;20174;-64
2022/12/28 05:33:11;;;;;;;18.35;13.55;;;;;;;;;;5080615;28;20044;-62
2022/12/28 05:35:37;;;;;;;19.90;14.10;;;;;;;;;;5066449;28;20044;-63
2022/12/28 05:38:03;;;;;;;17.92;13.00;;;;;;;;;;5090659;28;20044;-64
2022/12/28 05:40:28;;;;;;;20.30;14.38;;;7.70;99.90;;;;;;5094650;28;20040;-65
2022/12/28 05:42:55;;;;;;;18.85;13.63;;;;;;;;;;5097580;28;20408;-65
2022/12/28 05:45:20;;;;;;;19.67;13.30;;;;;;;;;;5093236;28;20043;-65
2022/12/28 05:47:46;;;;;;;22.85;14.77;;;;;;;;;;5087182;28;20043;-64
2022/12/28 05:50:12;;;;;;;22.10;14.25;;;;;;;;;;5093144;28;20044;-63
2022/12/28 05:52:38;;;;;;;16.60;12.13;;;;;;;;;;5086804;28;20048;-62
2022/12/28 05:55:04;;;;;;;18.80;12.25;;;;;;;;;;5098357;28;20032;-62
2022/12/28 05:57:30;;;;;;;18.88;14.02;;;;;;;;;;5094661;28;20043;-62
2022/12/28 05:59:56;;;;;;;19.27;13.55;;;;;;;;;;5095821;28;20378;-63
2022/12/28 06:02:26;;;;;;;16.95;11.75;;;;;;;;;;5091486;28;20063;-64
2022/12/28 06:04:52;;;;;;;15.32;11.95;;;;;;;;;;5086622;28;20112;-64
2022/12/28 06:07:18;;;;;;;16.35;12.93;;;;;;;;;;5099171;28;20494;-63
2022/12/28 06:09:44;;;;;;;16.70;11.85;;;;;;;;;;5097871;28;20044;-63
2022/12/28 06:12:10;;;;;;;23.48;14.05;;;;;;;;;;5066030;28;20074;-63
2022/12/28 06:14:35;;;;;;;18.38;12.93;;;;;;;;;;5074140;28;20485;-61
2022/12/28 06:17:01;;;;;;;18.80;13.27;;;;;;;;;;5099123;28;20046;-63
2022/12/28 06:19:27;;;;;;;21.40;13.45;;;;;;;;;;5079243;28;20046;-63
2022/12/28 06:21:53;;;;;;;19.92;13.30;;;8.10;99.90;;;;;;5096758;28;20122;-62
2022/12/28 06:24:19;;;;;;;17.55;12.90;;;;;;;;;;5104452;28;20032;-61
2022/12/28 06:26:45;;;;;;;18.02;12.57;;;;;;;;;;5101721;28;20067;-63
2022/12/28 06:29:11;;;;;;;15.25;11.93;;;;;;;;;;5089819;28;20040;-65
2022/12/28 06:31:44;;;;;;;15.48;11.43;;;;;;;;;;5063955;28;20063;-64
2022/12/28 06:34:10;;;;;;;15.98;11.60;;;;;;;;;;5092704;28;20405;-63
2022/12/28 06:36:37;;;;;;;12.57;11.02;;;;;;;;;;5070705;28;20040;-63
2022/12/28 06:39:05;;;;;;;15.52;11.93;;;;;;;;;;5098744;28;20075;-62
2022/12/28 06:41:31;;;;;;;13.32;10.15;;;;;;;;;;5081817;28;20055;-63
2022/12/28 06:43:58;;;;;;;14.95;11.20;;;;;;;;;;5088245;28;20055;-63
2022/12/28 06:46:26;;;;;;;15.05;10.27;;;;;;;;;;5088962;28;20112;-63
2022/12/28 06:48:52;;;;;;;13.30;9.98;;;;;;;;;;5070953;28;20048;-64
2022/12/28 06:51:19;;;;;;;16.00;10.23;;;;;;;;;;5071390;28;20048;-64
2022/12/28 06:53:45;;;;;;;12.52;9.82;;;;;;;;;;5070978;28;20059;-63
2022/12/28 06:56:13;;;;;;;11.25;9.18;;;;;;;;;;5059574;28;20043;-63
2022/12/28 06:58:39;;;;;;;13.38;10.35;;;;;;;;;;5088035;28;20039;-62
2022/12/28 07:01:09;;;;;;;13.13;9.77;;;;;;;;;;5071851;28;20044;-65
2022/12/28 07:03:35;;;;;;;14.50;9.80;;;;;;;;;;5095064;28;20063;-63
2022/12/28 07:06:02;;;;;;;13.18;10.23;;;;;;;;;;5087713;28;20032;-64
2022/12/28 07:08:28;;;;;;;16.85;10.82;;;;;;;;;;5100413;28;20039;-62
2022/12/28 07:10:54;;;;;;;15.63;10.85;;;;;;;;;;5077808;28;20044;-63
2022/12/28 07:13:20;;;;;;;16.25;11.90;;;;;;;;;;5094240;28;20536;-64
2022/12/28 07:15:46;;;;;;;17.92;11.70;;;;;;;;;;5072138;28;20036;-62
2022/12/28 07:18:12;;;;;;;16.38;12.00;;;;;;;;;;5094817;28;20819;-63
2022/12/28 07:20:38;;;;;;;16.88;12.32;;;;;;;;;;5097107;28;20048;-62
2022/12/28 07:23:04;;;;;;;17.55;11.45;;;;;;;;;;5083479;28;20124;-62
2022/12/28 07:25:30;;;;;;;16.02;11.70;;;;;;;;;;5067070;28;20051;-63
2022/12/28 07:27:56;;;;;;;17.15;11.70;;;;;;;;;;5084403;28;20418;-63
2022/12/28 07:30:22;;;;;;;15.23;11.50;;;;;;;;;;5101383;28;20055;-63
2022/12/28 07:32:48;;;;;;;18.20;11.52;;;;;;;;;;5084712;28;20128;-63
2022/12/28 07:35:14;;;;;;;16.70;11.70;;;;;;;;;;5072968;28;20083;-65
2022/12/28 07:37:40;;;;;;;15.90;10.57;;;;;;;;;;5077921;28;20097;-63
2022/12/28 07:40:06;;;;;;;15.50;12.05;;;8.80;99.90;;;;;;5078814;28;20127;-63
2022/12/28 07:42:32;;;;;;;20.15;11.60;;;;;;;;;;5079920;28;20043;-64
2022/12/28 07:44:58;;;;;;;17.75;13.32;;;;;;;;;;5063240;28;20071;-62
2022/12/28 07:47:24;;;;;;;15.38;10.50;;;;;;;;;;5087302;28;20104;-62
2022/12/28 07:49:50;;;;;;;16.52;11.63;;;;;;;;;;5081940;28;20043;-63
2022/12/28 07:52:16;;;;;;;16.13;12.07;;;;;;;;;;5078641;28;20039;-64
2022/12/28 07:54:42;;;;;;;19.67;12.63;;;;;;;;;;5083438;28;20044;-63
2022/12/28 07:57:08;;;;;;;18.23;13.73;;;;;;;;;;5085151;28;20062;-62
2022/12/28 07:59:34;;;;;;;19.30;13.45;;;;;;;;;;5101410;28;20050;-63
2022/12/28 08:02:00;;;;;;;18.48;13.40;;;;;;;;;;5100220;28;20075;-63
2022/12/28 08:04:26;;;;;;;17.92;13.20;;;8.80;99.90;;;;;;5086035;28;20043;-63
2022/12/28 08:06:52;;;;;;;17.40;12.55;;;;;;;;;;5081844;28;20469;-61
2022/12/28 08:09:18;;;;;;;17.45;11.27;;;;;;;;;;5098603;28;20040;-62
2022/12/28 08:11:44;;;;;;;16.50;12.35;;;;;;;;;;5103004;28;20039;-64
2022/12/28 08:14:11;;;;;;;16.65;12.57;;;8.80;99.90;;;;;;5095567;28;20062;-63
2022/12/28 08:16:41;;;;;;;17.63;12.77;;;;;;;;;;5074646;28;20039;-64
2022/12/28 08:19:07;;;;;;;16.83;12.27;;;;;;;;;;5080906;28;20074;-61
2022/12/28 08:21:35;;;;;;;15.00;11.55;;;;;;;;;;5095391;28;20680;-63
2022/12/28 08:24:02;;;;;;;15.02;11.25;;;8.70;99.90;;;;;;5080632;28;20545;-63
2022/12/28 08:26:29;;;;;;;15.98;10.18;;;;;;;;;;5078346;28;20116;-66
2022/12/28 08:28:56;;;;;;;21.52;11.63;;;;;;;;;;5083233;28;20051;-67
2022/12/28 08:31:30;;;;;;;15.82;10.52;;;;;;;;;;5091042;28;20572;-65
2022/12/28 08:33:57;;;;;;;12.88;10.07;;;8.90;99.90;;;;;;5101744;28;20169;-64
2022/12/28 08:36:24;;;;;;;14.85;9.68;;;;;;;;;;5096511;28;20554;-64
2022/12/28 08:38:50;;;;;;;13.18;9.30;;;;;;;;;;5098923;28;20035;-62
2022/12/28 08:41:20;;;;;;;16.70;10.50;;;;;;;;;;5081830;28;20508;-64
2022/12/28 08:43:47;;;;;;;11.85;10.25;;;;;;;;;;5087897;28;20123;-64
2022/12/28 08:46:32;;;;;;;14.43;9.38;;;;;;;;;;5101694;28;20100;-63
2022/12/28 08:48:58;;;;;;;16.48;10.30;;;;;;;;;;5077643;28;20083;-63
2022/12/28 08:51:26;;;;;;;13.10;8.77;;;;;;;;;;5098663;28;20059;-65
2022/12/28 08:53:52;;;;;;;17.10;10.32;;;;;;;;;;5101353;28;20439;-64
2022/12/28 08:56:21;;;;;;;15.43;10.73;;;;;;;;;;5083228;28;20039;-64
2022/12/28 08:58:48;;;;;;;14.75;10.52;;;;;;;;;;5078397;28;20131;-63
2022/12/28 09:01:19;;;;;;;14.82;10.05;;;;;;;;;;5077248;28;20078;-63
2022/12/28 09:03:45;;;;;;;13.98;10.32;;;;;;;;;;5089784;28;20044;-66
2022/12/28 09:06:13;;;;;;;11.75;9.52;;;;;;;;;;5091908;28;20051;-63
2022/12/28 09:08:40;;;;;;;12.82;9.63;;;;;;;;;;5083731;28;20051;-64
2022/12/28 09:11:08;;;;;;;14.25;9.35;;;;;;;;;;5086698;28;20054;-63
2022/12/28 09:13:34;;;;;;;13.85;9.20;;;;;;;;;;5091908;28;20036;-62
2022/12/28 09:16:01;;;;;;;11.88;9.50;;;;;;;;;;5082150;28;20067;-64
2022/12/28 09:18:28;;;;;;;12.52;9.00;;;;;;;;;;5096065;28;20111;-63
2022/12/28 09:20:54;;;;;;;12.38;8.43;;;;;;;;;;5078458;28;20043;-63
2022/12/28 09:23:20;;;;;;;10.55;8.38;;;;;;;;;;5098505;28;20038;-63
2022/12/28 09:25:46;;;;;;;16.02;9.57;;;;;;;;;;5099696;28;20031;-64
2022/12/28 09:28:12;;;;;;;10.75;8.80;;;;;;;;;;5080117;28;20048;-63
2022/12/28 09:30:38;;;;;;;11.57;8.48;;;9.10;99.90;;;;;;5079638;28;20432;-63
2022/12/28 09:35:48;;;;;;;12.68;9.23;;;9.20;99.90;;;;;;5080440;28;20048;-64
2022/12/28 09:38:14;;;;;;;11.10;9.10;;;;;;;;;;5092897;28;20031;-64
2022/12/28 09:40:40;;;;;;;9.07;7.97;;;;;;;;;;5093128;28;20059;-63
2022/12/28 09:43:08;;;;;;;11.05;8.75;;;;;;;;;;5080273;28;20047;-64
2022/12/28 09:45:35;;;;;;;13.00;8.65;;;;;;;;;;5076802;28;20059;-63
2022/12/28 09:48:08;;;;;;;9.55;8.43;;;;;;;;;;5088016;28;20116;-63
2022/12/28 09:50:34;;;;;;;13.77;8.55;;;9.30;99.90;;;;;;5067507;28;20490;-62
2022/12/28 09:53:07;;;;;;;12.00;8.82;;;;;;;;;;5083674;28;20044;-66
2022/12/28 09:55:34;;;;;;;10.73;8.40;;;;;;;;;;5057651;28;20046;-62
2022/12/28 09:58:01;;;;;;;10.20;7.88;;;;;;;;;;5092926;28;20036;-61
2022/12/28 10:00:36;;;;;;;9.40;8.18;;;;;;;;;;5093724;28;20818;-62
2022/12/28 10:03:03;;;;;;;9.77;7.60;;;;;;;;;;5084824;28;20039;-63
2022/12/28 10:05:29;;;;;;;10.25;7.22;;;;;;;;;;5071028;28;20402;-61
2022/12/28 10:07:57;;;;;;;9.57;7.53;;;9.60;99.90;;;;;;5087305;28;20046;-63
2022/12/28 10:10:24;;;;;;;16.77;8.50;;;;;;;;;;5074805;28;20044;-62
2022/12/28 10:12:50;;;;;;;9.05;6.57;;;;;;;;;;5081417;28;20493;-61
2022/12/28 10:15:16;;;;;;;9.13;6.70;;;;;;;;;;5091021;28;20051;-61
2022/12/28 10:17:43;;;;;;;10.88;7.40;;;;;;;;;;5092220;28;20040;-63
2022/12/28 10:20:20;;;;;;;10.50;6.68;;;9.20;99.90;;;;;;5073839;28;20490;-65
2022/12/28 10:22:55;;;;;;;11.13;6.85;;;;;;;;;;5092174;28;20085;-63
2022/12/28 10:25:22;;;;;;;9.27;6.10;;;;;;;;;;5084835;28;20052;-62
2022/12/28 10:27:48;;;;;;;9.75;7.10;;;;;;;;;;5090101;28;20138;-62
2022/12/28 10:30:28;;;;;;;10.45;6.47;;;;;;;;;;5082804;28;20047;-63
2022/12/28 10:32:54;;;;;;;8.55;5.97;;;;;;;;;;5050271;28;1034419;-62
2022/12/28 10:35:28;;;;;;;9.50;6.32;;;;;;;;;;5081412;28;20050;-62
2022/12/28 10:38:00;;;;;;;8.48;5.50;;;;;;;;;;5087901;28;20040;-62
2022/12/28 10:40:28;;;;;;;7.30;5.38;;;;;;;;;;5092771;28;20158;-63
2022/12/28 10:42:56;;;;;;;7.78;5.70;;;;;;;;;;5074749;28;20044;-65
2022/12/28 10:45:36;;;;;;;8.10;6.03;;;;;;;;;;5099771;28;20054;-64
2022/12/28 10:48:06;;;;;;;7.88;5.60;;;;;;;;;;5097046;28;20040;-64
2022/12/28 10:50:39;;;;;;;6.47;4.85;;;;;;;;;;5091126;28;20507;-63
2022/12/28 10:53:15;;;;;;;8.05;5.75;;;;;;;;;;5091048;28;20044;-64
2022/12/28 10:55:41;;;;;;;6.75;5.20;;;;;;;;;;5070188;28;20040;-62
2022/12/28 10:58:24;;;;;;;7.43;5.22;;;;;;;;;;5068355;28;20111;-62
2022/12/28 11:00:55;;;;;;;5.95;5.00;;;;;;;;;;5070533;28;20101;-63
2022/12/28 11:03:34;;;;;;;6.40;5.07;;;9.60;99.90;;;;;;5069524;28;20040;-63
2022/12/28 11:06:08;;;;;;;7.20;5.80;;;;;;;;;;5066198;28;20063;-63
2022/12/28 11:08:35;;;;;;;7.78;6.00;;;;;;;;;;5081390;28;20140;-63
2022/12/28 11:11:01;;;;;;;8.18;5.55;;;;;;;;;;5067749;28;20046;-65
2022/12/28 11:13:27;;;;;;;8.52;6.57;;;;;;;;;;5081809;28;20448;-63
2022/12/28 11:15:53;;;;;;;8.90;7.05;;;;;;;;;;5084764;28;20040;-63
2022/12/28 11:18:19;;;;;;;9.27;6.78;;;9.40;99.90;;;;;;5083351;28;20075;-63
2022/12/28 11:20:47;;;;;;;10.20;6.90;;;;;;;;;;5085491;28;20044;-64
2022/12/28 11:23:18;;;;;;;7.80;6.43;;;;;;;;;;5088053;28;20043;-63
2022/12/28 11:25:44;;;;;;;9.90;7.40;;;;;;;;;;5084985;28;20046;-64
2022/12/28 11:28:15;;;;;;;8.70;6.93;;;;;;;;;;5064480;28;20125;-63
2022/12/28 11:30:41;;;;;;;9.80;6.85;;;;;;;;;;5098089;28;20679;-63
2022/12/28 11:33:22;;;;;;;8.65;6.55;;;;;;;;;;5082208;28;20581;-63
2022/12/28 11:35:49;;;;;;;8.82;7.28;;;;;;;;;;5086340;28;20459;-64
2022/12/28 11:38:35;;;;;;;8.43;7.07;;;;;;;;;;5078586;28;20044;-64
2022/12/28 11:41:01;;;;;;;9.00;6.47;;;;;;;;;;5082759;28;20509;-64
2022/12/28 11:43:30;;;;;;;7.63;6.68;;;;;;;;;;5075237;28;20047;-63
2022/12/28 11:45:56;;;;;;;8.25;6.10;;;;;;;;;;5068477;28;20056;-62
2022/12/28 11:48:38;;;;;;;7.30;6.07;;;;;;;;;;5092101;28;20039;-62
2022/12/28 11:51:04;;;;;;;9.80;6.50;;;;;;;;;;5069285;28;20409;-66
2022/12/28 11:53:33;;;;;;;7.55;5.55;;;;;;;;;;5071932;28;20447;-64
2022/12/28 11:56:05;;;;;;;8.45;5.63;;;;;;;;;;5062116;28;20123;-62
2022/12/28 11:58:43;;;;;;;7.75;5.75;;;;;;;;;;5072233;28;20123;-64
2022/12/28 12:01:09;;;;;;;8.00;5.97;;;;;;;;;;5076356;28;20039;-63
2022/12/28 12:03:54;;;;;;;7.50;5.75;;;;;;;;;;5087221;28;20506;-65
2022/12/28 12:06:20;;;;;;;6.50;5.13;;;;;;;;;;5067896;28;20494;-63
2022/12/28 12:08:48;;;;;;;7.78;5.55;;;;;;;;;;5070486;28;20036;-64
2022/12/28 12:11:17;;;;;;;7.28;5.57;;;;;;;;;;5083301;28;20044;-64
2022/12/28 12:13:44;;;;;;;6.57;5.07;;;;;;;;;;5070044;28;20043;-64
2022/12/28 12:16:26;;;;;;;7.32;5.50;;;;;;;;;;5087938;28;20036;-63
2022/12/28 12:18:54;;;;;;;6.55;5.35;;;;;;;;;;5068949;28;20108;-63
2022/12/28 12:21:41;;;;;;;6.85;5.53;;;;;;;;;;5083771;28;20046;-63
2022/12/28 12:24:13;;;;;;;7.32;5.45;;;;;;;;;;5084324;28;20040;-64
2022/12/28 12:26:53;;;;;;;8.88;6.00;;;;;;;;;;5070896;28;20448;-64
2022/12/28 12:29:25;;;;;;;7.38;5.75;;;;;;;;;;5083136;28;20044;-66
2022/12/28 12:32:01;;;;;;;9.20;5.80;;;;;;;;;;5066955;28;20083;-63
2022/12/28 12:34:42;;;;;;;8.60;6.25;;;;;;;;;;5067891;28;20060;-63
2022/12/28 12:37:08;;;;;;;7.13;5.90;;;;;;;;;;5084475;28;20036;-63
2022/12/28 12:39:34;;;;;;;7.68;6.30;;;;;;;;;;5070282;28;20477;-63
2022/12/28 12:42:00;;;;;;;8.60;5.68;;;;;;;;;;5082934;28;20040;-64
2022/12/28 12:44:26;;;;;;;7.60;5.82;;;;;;;;;;5086365;28;20044;-64
2022/12/28 12:47:05;;;;;;;9.55;6.57;;;;;;;;;;5071739;28;20032;-63
2022/12/28 12:49:55;;;;;;;8.63;6.53;;;9.60;99.90;;;;;;5089782;28;20050;-63
2022/12/28 12:52:30;;;;;;;6.70;6.00;;;;;;;;;;5086468;28;20044;-64
2022/12/28 12:55:03;;;;;;;9.00;5.53;;;;;;;;;;5085806;28;20054;-64
2022/12/28 12:57:47;;;;;;;8.80;6.13;;;;;;;;;;5064901;28;20063;-63
2022/12/28 13:00:13;;;;;;;6.60;5.13;;;;;;;;;;5072621;28;20397;-63
2022/12/28 13:03:05;;;;;;;5.53;4.18;;;9.40;99.90;;;;;;5071315;28;20192;-61
2022/12/28 13:05:31;;;;;;;5.82;4.93;;;;;;;;;;5088188;28;20044;-64
2022/12/28 13:07:59;;;;;;;5.93;4.90;;;9.70;99.90;;;;;;5089009;28;20043;-63
2022/12/28 13:10:33;;;;;;;5.88;4.82;;;;;;;;;;5070928;28;20052;-63
2022/12/28 13:13:00;;;;;;;5.53;4.78;;;;;;;;;;5067378;28;20048;-62
2022/12/28 13:15:26;;;;;;;6.10;4.80;;;;;;;;;;5095872;28;20067;-62
2022/12/28 13:18:01;;;;;;;6.18;5.18;;;;;;;;;;5094823;28;20165;-62
2022/12/28 13:20:27;;;;;;;4.63;4.10;;;;;;;;;;5075071;28;20048;-63
2022/12/28 13:22:54;;;;;;;7.57;4.32;;;;;;;;;;5067460;28;20075;-65
2022/12/28 13:25:28;;;;;;;8.40;4.72;;;;;;;;;;5072637;28;20062;-63
2022/12/28 13:27:54;;;;;;;4.65;3.58;;;;;;;;;;5085016;28;20183;-63
2022/12/28 13:30:21;;;;;;;4.57;3.28;;;;;;;;;;5085240;28;20074;-65
2022/12/28 13:32:55;;;;;;;6.10;3.40;;;;;;;;;;5072588;28;20056;-66
2022/12/28 13:35:31;;;;;;;4.75;3.33;;;;;;;;;;5068912;28;20121;-65
2022/12/28 13:38:04;;;;;;;3.28;2.53;;;;;;;;;;5084145;28;20077;-65
2022/12/28 13:40:31;;;;;;;2.78;2.58;;;;;;;;;;5068952;28;20059;-66
2022/12/28 13:43:06;;;;;;;4.90;3.10;;;;;;;;;;5084850;28;20048;-65
2022/12/28 13:45:33;;;;;;;3.70;2.60;;;;;;;;;;5068502;28;20088;-65
2022/12/28 13:48:00;;;;;;;3.67;2.88;;;;;;;;;;5089598;28;20036;-66
2022/12/28 13:50:28;;;;;;;5.20;2.63;;;;;;;;;;5073807;28;20752;-63
2022/12/28 13:53:01;;;;;;;4.80;2.90;;;9.30;99.90;;;;;;5069524;28;20350;-63
2022/12/28 13:55:34;;;;;;;5.28;2.90;;;;;;;;;;5066972;28;20055;-63
2022/12/28 13:58:03;;;;;;;4.78;2.88;;;;;;;;;;5065644;28;20063;-63
2022/12/28 14:00:30;;;;;;;4.00;2.88;;;;;;;;;;5077302;28;20050;-63
2022/12/28 14:02:56;;;;;;;4.57;3.22;;;;;;;;;;5076155;28;20122;-62
2022/12/28 14:05:24;;;;;;;5.65;2.60;;;;;;;;;;5100058;28;20075;-63
2022/12/28 14:07:50;;;;;;;4.43;3.25;;;;;;;;;;5076774;28;20074;-62
2022/12/28 14:10:18;;;;;;;4.53;3.28;;;;;;;;;;5077841;28;20081;-61
2022/12/28 14:12:44;;;;;;;6.60;3.60;;;9.40;99.90;;;;;;5089995;28;20041;-61
2022/12/28 14:15:11;;;;;;;4.88;3.47;;;;;;;;;;5092202;28;20150;-66
2022/12/28 14:17:38;;;;;;;8.13;3.70;;;;;;;;;;5091325;28;20032;-63
2022/12/28 14:20:04;;;;;;;9.75;3.92;;;;;;;;;;5070672;28;20760;-63
2022/12/28 14:22:32;;;;;;;5.03;4.43;;;;;;;;;;5067894;28;20516;-65
2022/12/28 14:25:17;;;;;;;5.97;4.40;;;;;;;;;;5083711;28;20036;-63
2022/12/28 14:27:54;;;;;;;4.80;4.35;;;;;;;;;;5066609;28;20040;-63
2022/12/28 14:30:21;;;;;;;7.82;4.43;;;;;;;;;;5083497;28;20051;-64
2022/12/28 14:32:47;;;;;;;6.95;4.35;;;;;;;;;;5067443;28;20055;-63
2022/12/28 14:35:22;;;;;;;8.20;4.32;;;;;;;;;;5071526;28;20494;-64
2022/12/28 14:37:56;;;;;;;6.68;4.05;;;;;;;;;;5080152;28;20035;-61
2022/12/28 14:40:35;;;;;;;6.70;4.45;;;;;;;;;;5098934;28;20134;-62
2022/12/28 14:43:15;;;;;;;8.60;4.50;;;;;;;;;;5093697;28;20091;-61
2022/12/28 14:45:43;;;;;;;8.30;4.82;;;;;;;;;;5097508;28;20039;-65
2022/12/28 14:48:28;;;;;;;9.68;5.78;;;;;;;;;;5079917;28;20994;-65
2022/12/28 14:51:01;;;;;;;9.63;5.43;;;;;;;;;;5082563;28;20048;-63
2022/12/28 14:53:28;;;;;;;7.65;5.13;;;;;;;;;;5082050;28;20179;-65
2022/12/28 14:55:54;;;;;;;11.00;5.93;;;;;;;;;;5091143;28;20558;-64
2022/12/28 14:58:22;;;;;;;9.25;5.63;;;;;;;;;;5073547;28;20047;-64